Chicago Midway International Airport
KMDW : now visible

Airfield :











YOU CAN JOIN US ON...

 
LOGIN :

Register | Disclaimer

   EN    FR    IT 

 









Legend :    VFR   Marginal VFR   IFR   Intensive IFR   Very Intensive IFR
Visi :
Ceiling :
>= 8 km
>= 3000ft
5 to 8 km
1000 to 3000 ft
1500m to 5 km
500 to 1000 ft
800 to 1500m
200 to 500 ft
< 800m
< 200 ft
Symbols :   Thunderstorms  Fog  Heavy snow  Heavy precipitations  Wind > 20 kt






- Airport Elevation : 620 ft
- IATA code : MDW


KMDW - Chicago Midway International

CURRENT METAR :
  • 130953Z 32003KT 10SM CLR 18/16 A2997 RMK AO2 SLP139 T01780156

EXPIRED METARs :
  • 130853Z 29004KT 10SM CLR 18/16 A2994 RMK AO2 SLP132 T01830156 55001
  • 130753Z 00000KT 10SM CLR 19/16 A2994 RMK AO2 SLP130 T01940156

TAF KMDW
Valid from the 13 at 09:00 until the 14 at 12:00 UTC


130900Z 1309/1412 35004KT P6SM FEW250
FM131500 03007KT P6SM SCT045
FM131700 08010KT P6SM BKN050
FM140200 13004KT P6SM FEW050
KZAU FIR / North America



MET'MAP, your aeronautical weather chart ! - Copyright ORBIFLY December 2007 - Disclaimer

ORBIFLY MET'MAP TEAM :

Programming & Development : Alexandra Zaïnal
Concept & original design : Baudouin d'Aumeries
Assistance for programming : Marc-Olivier Méhu
Technical & hardware support : Manuel Goepfert

Contact : metmap@orbifly.com




SOURCES & CREDITS :

   NOAA       Earth
Advisory